Terminal Aerodrome Forecast
Issued by NWS Topeka, KS

Home | Current Version | Previous Version | Graphics & Text | Print | Product List | Glossary On
Versions: 1 2 3 4 5 6 7 8 9 10 11 12 13 14 15 16 17 18
347
FTUS43 KTOP 250227 AAA
TAFTOP
TAF AMD
KTOP 250227Z 2502/2524 15009KT 6SM TSRA BKN035CB
      TEMPO 2502/2504 22012G30KT 1SM TSRA BKN025CB
     FM250900 15009KT P6SM VCTS BKN035CB
     FM251500 33007KT P6SM SCT015 BKN050=

USA.gov is the U.S. government's official web portal to all federal, state and local government web resources and services.